createdAt,value
2022-09-20T00:00:35.640Z,98.80
2022-09-20T00:01:37.542Z,98.80
2022-09-20T00:02:39.498Z,98.80
2022-09-20T00:03:44.426Z,98.80
2022-09-20T00:04:49.565Z,98.90
2022-09-20T00:05:51.446Z,98.90
2022-09-20T00:06:53.203Z,98.90
2022-09-20T00:07:55.079Z,98.90
2022-09-20T00:08:57.868Z,98.80
2022-09-20T00:09:59.739Z,98.90
2022-09-20T00:11:03.504Z,98.90
2022-09-20T00:12:05.654Z,98.80
2022-09-20T00:13:09.108Z,98.80
2022-09-20T00:14:10.958Z,98.90
2022-09-20T00:15:12.722Z,98.90
2022-09-20T00:16:17.422Z,98.90
2022-09-20T00:17:19.342Z,98.90
2022-09-20T00:18:21.250Z,98.90
2022-09-20T00:19:23.139Z,98.90
2022-09-20T00:20:25.302Z,98.80
2022-09-20T00:21:29.525Z,98.60
2022-09-20T00:22:31.596Z,98.50
2022-09-20T00:23:34.085Z,98.20
2022-09-20T00:24:36.766Z,98.10
2022-09-20T00:25:38.986Z,98.20
2022-09-20T00:26:40.849Z,98.40
2022-09-20T00:27:43.028Z,98.50
2022-09-20T00:28:47.092Z,98.70
2022-09-20T00:29:49.056Z,98.70
2022-09-20T00:30:52.192Z,98.80
2022-09-20T00:31:53.999Z,98.80
2022-09-20T00:32:55.893Z,98.80
2022-09-20T00:34:17.119Z,98.80
2022-09-20T00:35:18.891Z,98.80
2022-09-20T00:36:20.924Z,98.80
2022-09-20T00:37:22.711Z,98.70
2022-09-20T00:38:24.647Z,98.60
2022-09-20T00:39:26.817Z,98.60
2022-09-20T00:40:28.997Z,98.60
2022-09-20T00:41:31.965Z,98.60
2022-09-20T00:42:34.021Z,98.60
2022-09-20T00:43:41.996Z,98.60
2022-09-20T00:45:02.327Z,98.60
2022-09-20T00:46:05.154Z,98.60
2022-09-20T00:47:37.774Z,98.60
2022-09-20T00:48:43.235Z,98.40
2022-09-20T00:49:45.666Z,98.30
2022-09-20T00:50:52.899Z,98.40
2022-09-20T00:51:57.796Z,98.50
2022-09-20T00:53:06.888Z,98.50
2022-09-20T00:54:11.781Z,98.50
2022-09-20T00:55:15.803Z,98.30
2022-09-20T00:56:24.672Z,98.30
2022-09-20T00:57:26.981Z,98.40
2022-09-20T00:58:31.058Z,98.20
2022-09-20T00:59:34.827Z,98.10
2022-09-20T01:00:40.239Z,98.30
2022-09-20T01:01:47.093Z,98.40
2022-09-20T01:02:53.607Z,98.60
2022-09-20T01:03:55.573Z,98.40
2022-09-20T01:04:58.543Z,98.70
2022-09-20T01:06:06.393Z,98.60
2022-09-20T01:07:11.125Z,98.60
2022-09-20T01:08:13.655Z,98.70
2022-09-20T01:09:15.620Z,98.80
2022-09-20T01:10:18.044Z,98.80
2022-09-20T01:11:20.072Z,98.80
2022-09-20T01:12:29.298Z,98.80
2022-09-20T01:13:31.211Z,99.20
2022-09-20T01:14:34.052Z,98.70
2022-09-20T01:15:38.900Z,98.70
2022-09-20T01:16:40.833Z,98.80
2022-09-20T01:17:48.738Z,98.80
2022-09-20T01:18:50.962Z,98.80
2022-09-20T01:20:14.616Z,98.90
2022-09-20T01:21:18.071Z,98.90
2022-09-20T01:22:35.815Z,98.90
2022-09-20T01:23:46.341Z,98.90
2022-09-20T01:24:58.104Z,99.00
2022-09-20T01:26:41.081Z,99.00
2022-09-20T01:27:48.703Z,98.90
2022-09-20T01:29:00.114Z,98.90
2022-09-20T01:30:05.152Z,98.80
2022-09-20T01:31:09.380Z,98.70
2022-09-20T01:32:15.112Z,98.70
2022-09-20T01:33:19.485Z,98.60
2022-09-20T01:34:35.886Z,98.80
2022-09-20T01:35:41.250Z,98.90
2022-09-20T01:37:02.663Z,98.90
2022-09-20T01:38:44.147Z,98.90
2022-09-20T01:40:04.012Z,99.00
2022-09-20T01:41:24.651Z,99.20
2022-09-20T01:42:33.468Z,99.20
2022-09-20T01:43:37.797Z,99.20
2022-09-20T01:45:00.763Z,99.30
2022-09-20T01:46:20.676Z,99.30
2022-09-20T01:47:34.942Z,99.40
2022-09-20T01:48:42.171Z,99.40
2022-09-20T01:50:05.385Z,99.40
2022-09-20T01:51:44.440Z,99.30
2022-09-20T01:53:02.588Z,99.30
2022-09-20T01:54:25.127Z,99.40
2022-09-20T01:56:14.904Z,99.30
2022-09-20T01:57:53.424Z,99.20
2022-09-20T01:59:24.279Z,99.30
2022-09-20T02:00:31.149Z,99.30
2022-09-20T02:01:57.579Z,99.30
2022-09-20T02:03:33.615Z,99.30
2022-09-20T02:04:56.721Z,99.30
2022-09-20T02:06:12.860Z,99.10
2022-09-20T02:07:39.071Z,99.10
2022-09-20T02:09:05.307Z,99.20
2022-09-20T02:10:34.983Z,99.30
2022-09-20T02:12:12.290Z,99.30
2022-09-20T02:13:29.813Z,99.40
2022-09-20T02:14:37.597Z,99.40
2022-09-20T02:16:13.256Z,99.40
2022-09-20T02:17:39.081Z,99.40
2022-09-20T02:19:11.511Z,99.40
2022-09-20T02:20:16.208Z,99.20
2022-09-20T02:21:20.610Z,99.10
2022-09-20T02:23:10.669Z,99.10
2022-09-20T02:24:30.392Z,99.00
2022-09-20T02:26:05.056Z,99.10
2022-09-20T02:27:18.510Z,99.10
2022-09-20T02:28:51.129Z,99.30
2022-09-20T02:30:23.347Z,99.30
2022-09-20T02:31:43.627Z,99.50
2022-09-20T02:32:48.621Z,99.70
2022-09-20T02:34:24.887Z,99.70
2022-09-20T02:35:50.751Z,99.50
2022-09-20T02:37:40.871Z,99.70
2022-09-20T02:38:58.004Z,99.60
2022-09-20T02:40:12.711Z,99.60
2022-09-20T02:41:17.377Z,99.70
2022-09-20T02:42:31.026Z,99.80
2022-09-20T02:43:47.238Z,99.80
2022-09-20T02:45:11.590Z,99.90
2022-09-20T02:46:33.587Z,99.80
2022-09-20T02:47:43.518Z,99.90
2022-09-20T02:48:58.360Z,99.90
2022-09-20T02:50:06.512Z,99.80
2022-09-20T02:51:48.689Z,99.70
2022-09-20T02:53:24.701Z,99.60
2022-09-20T02:54:56.969Z,99.60
2022-09-20T02:56:26.967Z,99.50
2022-09-20T02:57:53.671Z,99.30
2022-09-20T02:59:01.098Z,99.20
2022-09-20T03:00:16.683Z,99.30
2022-09-20T03:01:31.520Z,99.30
2022-09-20T03:03:11.282Z,99.50
2022-09-20T03:04:28.535Z,99.60
2022-09-20T03:05:52.291Z,99.40
2022-09-20T03:07:12.630Z,99.30
2022-09-20T03:08:22.010Z,99.40
2022-09-20T03:09:47.936Z,99.50
2022-09-20T03:11:04.575Z,99.70
2022-09-20T03:12:44.276Z,99.70
2022-09-20T03:13:57.456Z,99.60
2022-09-20T03:15:08.281Z,99.50
2022-09-20T03:16:39.137Z,99.30
2022-09-20T03:18:25.059Z,99.30
2022-09-20T03:19:42.220Z,99.40
2022-09-20T03:21:18.874Z,99.50
2022-09-20T03:22:30.947Z,99.40
2022-09-20T03:23:50.257Z,99.30
2022-09-20T03:25:10.710Z,99.30
2022-09-20T03:26:34.572Z,99.40
2022-09-20T03:27:55.008Z,99.50
2022-09-20T03:29:02.554Z,99.60
2022-09-20T03:30:15.119Z,99.60
2022-09-20T03:31:38.618Z,99.50
2022-09-20T03:32:59.932Z,99.30
2022-09-20T03:34:36.843Z,99.80
2022-09-20T03:35:56.872Z,99.40
2022-09-20T03:37:46.982Z,99.50
2022-09-20T03:39:23.714Z,99.30
2022-09-20T03:40:46.664Z,99.40
2022-09-20T03:42:02.080Z,99.50
2022-09-20T03:43:36.555Z,99.50
2022-09-20T03:45:15.492Z,99.50
2022-09-20T03:46:26.735Z,99.30
2022-09-20T03:47:42.841Z,99.20
2022-09-20T03:49:06.631Z,99.60
2022-09-20T03:50:36.312Z,99.20
2022-09-20T03:52:05.814Z,99.80
2022-09-20T03:53:30.299Z,99.50
2022-09-20T03:54:42.780Z,99.70
2022-09-20T03:55:50.872Z,99.70
2022-09-20T03:56:58.976Z,99.70
2022-09-20T03:58:08.859Z,99.70
2022-09-20T03:59:22.938Z,99.70
2022-09-20T04:00:56.065Z,99.70
2022-09-20T04:02:22.015Z,99.50
2022-09-20T04:03:49.451Z,99.30
2022-09-20T04:05:00.341Z,99.30
2022-09-20T04:06:24.297Z,99.30
2022-09-20T04:07:28.986Z,99.30
2022-09-20T04:08:45.909Z,99.70
2022-09-20T04:10:22.077Z,99.60
2022-09-20T04:11:38.704Z,99.60
2022-09-20T04:13:16.640Z,99.40
2022-09-20T04:14:34.839Z,99.20
2022-09-20T04:15:58.281Z,99.40
2022-09-20T04:17:20.702Z,99.50
2022-09-20T04:18:50.396Z,99.40
2022-09-20T04:20:03.854Z,99.40
2022-09-20T04:21:22.851Z,99.50
2022-09-20T04:22:28.728Z,99.50
2022-09-20T04:23:53.094Z,99.70
2022-09-20T04:25:12.257Z,99.70
2022-09-20T04:26:19.883Z,99.50
2022-09-20T04:27:30.014Z,99.50
2022-09-20T04:28:47.443Z,99.50
2022-09-20T04:29:59.317Z,99.50
2022-09-20T04:31:14.561Z,99.60
2022-09-20T04:32:32.912Z,99.50
2022-09-20T04:33:43.180Z,99.60
2022-09-20T04:35:45.291Z,99.70
2022-09-20T04:36:58.390Z,99.90
2022-09-20T04:38:05.541Z,99.60
2022-09-20T04:39:16.425Z,99.40
2022-09-20T04:40:45.736Z,99.20
2022-09-20T04:42:18.112Z,99.10
2022-09-20T04:43:52.720Z,99.20
2022-09-20T04:45:16.330Z,99.40
2022-09-20T04:46:55.957Z,99.60
2022-09-20T04:48:27.959Z,99.60
2022-09-20T04:49:51.707Z,99.60
2022-09-20T04:51:24.319Z,99.70
2022-09-20T04:52:55.578Z,99.50
2022-09-20T04:54:34.814Z,99.40
2022-09-20T04:56:00.170Z,99.20
2022-09-20T04:57:40.154Z,99.20
2022-09-20T04:59:00.421Z,99.30
2022-09-20T05:00:21.884Z,99.40
2022-09-20T05:01:45.166Z,99.50
2022-09-20T05:03:05.617Z,99.70
2022-09-20T05:04:32.785Z,99.70
2022-09-20T05:06:04.736Z,99.50
2022-09-20T05:07:50.396Z,99.50
2022-09-20T05:09:11.179Z,99.60
2022-09-20T05:10:45.934Z,99.50
2022-09-20T05:12:02.674Z,99.70
2022-09-20T05:13:29.244Z,99.70
2022-09-20T05:15:03.823Z,99.80
2022-09-20T05:16:44.133Z,99.80
2022-09-20T05:17:54.811Z,99.80
2022-09-20T05:19:09.224Z,99.80
2022-09-20T05:20:35.458Z,99.80
2022-09-20T05:21:37.193Z,99.80
2022-09-20T05:22:59.894Z,99.80
2022-09-20T05:24:49.551Z,99.80
2022-09-20T05:26:33.466Z,99.70
2022-09-20T05:27:45.516Z,99.70
2022-09-20T05:29:10.273Z,99.70
2022-09-20T05:30:24.720Z,99.60
2022-09-20T05:32:02.397Z,99.50
2022-09-20T05:33:23.750Z,99.50
2022-09-20T05:34:52.427Z,99.60
2022-09-20T05:36:21.185Z,99.50
2022-09-20T05:37:55.145Z,99.60
2022-09-20T05:39:08.166Z,99.60
2022-09-20T05:40:29.097Z,99.60
2022-09-20T05:42:04.528Z,99.60
2022-09-20T05:43:13.964Z,99.60
2022-09-20T05:44:46.389Z,99.40
2022-09-20T05:45:54.230Z,99.40
2022-09-20T05:47:15.549Z,99.50
2022-09-20T05:48:42.666Z,99.60
2022-09-20T05:50:15.610Z,99.70
2022-09-20T05:51:58.117Z,99.70
2022-09-20T05:53:38.757Z,99.70
2022-09-20T05:55:11.206Z,99.60
2022-09-20T05:56:26.464Z,99.50
2022-09-20T05:57:40.049Z,99.40
2022-09-20T05:58:58.407Z,99.40
2022-09-20T06:00:00.572Z,99.50
2022-09-20T06:01:10.477Z,99.60
2022-09-20T06:02:46.888Z,99.70
2022-09-20T06:04:01.394Z,99.60
2022-09-20T06:05:42.747Z,99.60
2022-09-20T06:06:57.205Z,99.60
2022-09-20T06:08:04.851Z,99.50
2022-09-20T06:09:33.500Z,99.60
2022-09-20T06:10:54.305Z,99.50
2022-09-20T06:12:06.035Z,99.60
2022-09-20T06:13:45.707Z,99.90
2022-09-20T06:15:08.716Z,99.30
2022-09-20T06:16:19.398Z,99.40
2022-09-20T06:17:30.962Z,99.40
2022-09-20T06:18:38.917Z,99.30
2022-09-20T06:20:19.907Z,99.40
2022-09-20T06:21:41.888Z,99.50
2022-09-20T06:22:47.213Z,99.60
2022-09-20T06:23:49.490Z,99.60
2022-09-20T06:25:00.999Z,99.70
2022-09-20T06:26:09.158Z,99.70
2022-09-20T06:27:18.527Z,99.70
2022-09-20T06:28:22.906Z,99.70
2022-09-20T06:29:35.607Z,99.60
2022-09-20T06:30:44.089Z,99.40
2022-09-20T06:31:46.005Z,99.40
2022-09-20T06:32:59.883Z,99.40
2022-09-20T06:34:10.288Z,99.40
2022-09-20T06:35:12.379Z,99.40
2022-09-20T06:36:42.156Z,99.50
2022-09-20T06:38:11.155Z,99.60
2022-09-20T06:39:59.143Z,99.50
2022-09-20T06:41:20.259Z,99.60
2022-09-20T06:42:26.480Z,99.70
2022-09-20T06:43:31.538Z,99.80
2022-09-20T06:44:33.561Z,99.90
2022-09-20T06:45:36.098Z,99.90
2022-09-20T06:46:38.503Z,99.90
2022-09-20T06:47:40.607Z,99.90
2022-09-20T06:48:42.389Z,99.90
2022-09-20T06:49:47.050Z,99.90
2022-09-20T06:50:50.117Z,99.90
2022-09-20T06:51:52.495Z,99.90
2022-09-20T06:52:55.077Z,99.90
2022-09-20T06:53:57.513Z,99.90
2022-09-20T06:54:59.388Z,99.90
2022-09-20T06:56:01.876Z,99.90
2022-09-20T06:57:06.021Z,99.90
2022-09-20T06:58:09.837Z,99.70
2022-09-20T06:59:12.789Z,99.50
2022-09-20T07:00:15.989Z,99.40
2022-09-20T07:01:29.036Z,99.40
2022-09-20T07:02:31.781Z,99.50
2022-09-20T07:03:33.829Z,99.60
2022-09-20T07:04:35.797Z,99.70
2022-09-20T07:05:38.596Z,99.80
2022-09-20T07:06:40.714Z,99.90
2022-09-20T07:07:44.074Z,99.90
2022-09-20T07:08:48.579Z,99.90
2022-09-20T07:09:51.246Z,99.90
2022-09-20T07:10:53.208Z,99.90
2022-09-20T07:11:56.145Z,99.90
2022-09-20T07:12:59.450Z,99.90
2022-09-20T07:14:01.907Z,99.90
2022-09-20T07:15:04.410Z,99.90
2022-09-20T07:16:08.533Z,99.90
2022-09-20T07:17:11.658Z,99.90
2022-09-20T07:18:13.941Z,99.90
2022-09-20T07:19:16.446Z,99.90
2022-09-20T07:20:21.555Z,99.90
2022-09-20T07:21:24.017Z,99.90
2022-09-20T07:22:26.970Z,99.90
2022-09-20T07:23:29.881Z,99.90
2022-09-20T07:24:32.331Z,99.90
2022-09-20T07:25:34.617Z,99.90
2022-09-20T07:26:40.935Z,99.90
2022-09-20T07:27:42.733Z,99.90
2022-09-20T07:28:44.581Z,99.90
2022-09-20T07:29:46.408Z,99.90
2022-09-20T07:30:48.371Z,99.90
2022-09-20T07:31:50.844Z,99.80
2022-09-20T07:32:52.825Z,99.70
2022-09-20T07:33:55.460Z,99.60
2022-09-20T07:34:57.738Z,99.60
2022-09-20T07:35:59.735Z,99.60
2022-09-20T07:37:01.533Z,99.60
2022-09-20T07:38:03.367Z,99.70
2022-09-20T07:39:05.188Z,99.80
2022-09-20T07:40:08.541Z,99.90
2022-09-20T07:41:10.707Z,99.90
2022-09-20T07:42:13.113Z,99.90
2022-09-20T07:43:14.910Z,99.90
2022-09-20T07:44:27.647Z,99.90
2022-09-20T07:45:31.206Z,99.90
2022-09-20T07:46:36.089Z,99.90
2022-09-20T07:47:41.237Z,99.90
2022-09-20T07:48:43.240Z,99.90
2022-09-20T07:49:45.117Z,99.90
2022-09-20T07:51:11.071Z,99.90
2022-09-20T07:52:14.635Z,99.90
2022-09-20T07:53:16.423Z,99.90
2022-09-20T07:54:19.066Z,99.90
2022-09-20T07:55:20.902Z,99.90
2022-09-20T07:56:22.696Z,99.90
2022-09-20T07:57:24.714Z,99.90
2022-09-20T07:58:27.256Z,99.90
2022-09-20T07:59:29.105Z,99.90
2022-09-20T08:00:30.841Z,99.90
2022-09-20T08:01:32.708Z,99.90
2022-09-20T08:02:34.562Z,99.90
2022-09-20T08:03:37.611Z,99.90
2022-09-20T08:04:41.692Z,99.90
2022-09-20T08:05:43.585Z,99.90
2022-09-20T08:06:46.311Z,99.90
2022-09-20T08:07:48.330Z,99.90
2022-09-20T08:08:51.666Z,99.90
2022-09-20T08:09:54.471Z,99.90
2022-09-20T08:11:27.869Z,99.90
2022-09-20T08:14:12.850Z,99.90
2022-09-20T08:15:14.820Z,99.80
2022-09-20T08:16:17.422Z,99.80
2022-09-20T08:17:19.703Z,99.60
2022-09-20T08:18:22.634Z,99.60
2022-09-20T08:19:24.571Z,99.50
2022-09-20T08:20:26.369Z,99.30
2022-09-20T08:21:31.807Z,99.30
2022-09-20T08:22:34.811Z,99.20
2022-09-20T08:23:44.105Z,99.10
2022-09-20T08:24:47.088Z,99.00
2022-09-20T08:25:49.258Z,99.00
2022-09-20T08:26:51.059Z,99.00
2022-09-20T08:27:54.124Z,99.00
2022-09-20T08:28:58.259Z,98.90
2022-09-20T08:30:01.138Z,98.80
2022-09-20T08:31:06.176Z,98.70
2022-09-20T08:32:08.036Z,98.80
2022-09-20T08:33:12.076Z,98.80
2022-09-20T08:34:16.119Z,98.80
2022-09-20T08:35:17.991Z,98.80
2022-09-20T08:36:22.096Z,98.80
2022-09-20T08:37:23.910Z,98.80
2022-09-20T08:39:58.225Z,98.90
2022-09-20T08:41:07.704Z,99.10
2022-09-20T08:42:28.023Z,99.10
2022-09-20T08:43:38.494Z,99.10
2022-09-20T08:45:02.517Z,99.00
2022-09-20T08:46:09.804Z,98.90
2022-09-20T08:47:49.234Z,98.90
2022-09-20T08:48:52.426Z,98.80
2022-09-20T08:49:57.403Z,98.80
2022-09-20T08:51:05.622Z,98.70
2022-09-20T08:52:14.927Z,99.20
2022-09-20T08:53:21.471Z,98.60
2022-09-20T08:54:24.899Z,98.60
2022-09-20T08:55:39.964Z,98.40
2022-09-20T08:56:44.444Z,98.00
2022-09-20T08:57:53.977Z,98.20
2022-09-20T08:59:00.698Z,97.50
2022-09-20T09:00:17.583Z,97.70
2022-09-20T09:01:29.407Z,97.30
2022-09-20T09:02:32.308Z,96.90
2022-09-20T09:03:34.828Z,96.60
2022-09-20T09:04:37.017Z,96.40
2022-09-20T09:05:46.496Z,96.40
2022-09-20T09:06:49.973Z,96.30
2022-09-20T09:07:52.060Z,96.10
2022-09-20T09:08:57.712Z,95.40
2022-09-20T09:10:00.646Z,95.50
2022-09-20T09:11:09.615Z,95.80
2022-09-20T09:12:25.840Z,96.10
2022-09-20T09:13:33.136Z,96.40
2022-09-20T09:14:55.308Z,96.70
2022-09-20T09:16:00.985Z,96.90
2022-09-20T09:17:02.829Z,97.00
2022-09-20T09:18:10.363Z,97.00
2022-09-20T09:19:34.088Z,97.50
2022-09-20T09:20:46.756Z,99.00
2022-09-20T09:21:48.536Z,97.90
2022-09-20T09:23:05.122Z,96.60
2022-09-20T09:24:18.385Z,95.50
2022-09-20T09:25:29.951Z,94.80
2022-09-20T09:26:39.435Z,94.10
2022-09-20T09:28:00.087Z,94.00
2022-09-20T09:29:31.710Z,94.00
2022-09-20T09:30:37.307Z,94.20
2022-09-20T09:31:39.874Z,94.20
2022-09-20T09:32:41.916Z,94.30
2022-09-20T09:33:47.461Z,94.30
2022-09-20T09:34:49.860Z,94.30
2022-09-20T09:36:15.511Z,94.40
2022-09-20T09:37:31.397Z,94.30
2022-09-20T09:38:38.850Z,94.50
2022-09-20T09:39:41.101Z,94.70
2022-09-20T09:40:54.524Z,94.80
2022-09-20T09:42:01.248Z,94.80
2022-09-20T09:43:04.350Z,95.00
2022-09-20T09:44:27.645Z,95.20
2022-09-20T09:45:36.660Z,95.30
2022-09-20T09:46:40.174Z,95.40
2022-09-20T09:47:41.917Z,95.50
2022-09-20T09:48:49.803Z,95.50
2022-09-20T09:50:01.882Z,95.60
2022-09-20T09:51:15.669Z,95.50
2022-09-20T09:52:26.142Z,95.70
2022-09-20T09:53:27.886Z,95.80
2022-09-20T09:54:33.498Z,95.80
2022-09-20T09:56:15.133Z,95.90
2022-09-20T09:57:34.783Z,96.00
2022-09-20T09:58:56.149Z,95.90
2022-09-20T10:00:30.471Z,96.00
2022-09-20T10:01:55.645Z,95.90
2022-09-20T10:03:22.040Z,96.00
2022-09-20T10:04:37.367Z,95.70
2022-09-20T10:05:57.842Z,96.00
2022-09-20T10:07:42.526Z,96.10
2022-09-20T10:09:09.464Z,95.90
2022-09-20T10:10:34.357Z,96.00
2022-09-20T10:11:49.983Z,95.90
2022-09-20T10:13:21.770Z,95.90
2022-09-20T10:14:44.460Z,95.70
2022-09-20T10:15:56.410Z,95.70
2022-09-20T10:17:12.680Z,95.60
2022-09-20T10:18:47.150Z,95.30
2022-09-20T10:20:08.029Z,95.30
2022-09-20T10:21:36.770Z,95.20
2022-09-20T10:23:34.335Z,95.60
2022-09-20T10:24:51.048Z,95.40
2022-09-20T10:26:26.497Z,94.60
2022-09-20T10:27:42.975Z,94.00
2022-09-20T10:29:03.754Z,94.60
2022-09-20T10:30:16.974Z,94.40
2022-09-20T10:31:40.686Z,94.60
2022-09-20T10:33:24.399Z,95.10
2022-09-20T10:34:56.365Z,95.50
2022-09-20T10:36:24.707Z,95.40
2022-09-20T10:38:03.547Z,95.80
2022-09-20T10:39:16.794Z,95.70
2022-09-20T10:41:04.446Z,95.40
2022-09-20T10:42:46.096Z,95.80
2022-09-20T10:44:26.436Z,95.30
2022-09-20T10:47:57.346Z,95.40
2022-09-20T10:49:11.815Z,95.70
2022-09-20T10:50:29.528Z,95.60
2022-09-20T10:51:52.969Z,95.60
2022-09-20T10:53:27.987Z,94.90
2022-09-20T10:55:13.149Z,94.90
2022-09-20T10:56:24.085Z,95.10
2022-09-20T10:57:37.664Z,95.20
2022-09-20T10:59:30.342Z,94.50
2022-09-20T11:00:47.070Z,95.20
2022-09-20T11:02:05.696Z,95.30
2022-09-20T11:03:24.523Z,95.50
2022-09-20T11:04:47.878Z,95.20
2022-09-20T11:06:05.413Z,95.30
2022-09-20T11:07:30.345Z,94.80
2022-09-20T11:08:38.222Z,94.60
2022-09-20T11:09:44.734Z,93.20
2022-09-20T11:10:53.488Z,93.60
2022-09-20T11:12:09.826Z,91.80
2022-09-20T11:13:40.079Z,92.60
2022-09-20T11:14:51.082Z,92.10
2022-09-20T11:16:15.223Z,92.20
2022-09-20T11:17:26.788Z,91.90
2022-09-20T11:18:51.332Z,92.00
2022-09-20T11:20:15.741Z,91.60
2022-09-20T11:21:36.711Z,91.40
2022-09-20T11:22:48.227Z,91.60
2022-09-20T11:23:59.513Z,91.40
2022-09-20T11:25:39.192Z,91.10
2022-09-20T11:26:54.392Z,91.40
2022-09-20T11:28:23.171Z,91.00
2022-09-20T11:29:34.562Z,90.70
2022-09-20T11:30:46.610Z,90.70
2022-09-20T11:31:51.092Z,91.20
2022-09-20T11:33:02.033Z,90.30
2022-09-20T11:34:21.404Z,90.30
2022-09-20T11:35:35.067Z,89.90
2022-09-20T11:36:53.770Z,89.80
2022-09-20T11:38:16.074Z,90.10
2022-09-20T11:39:54.173Z,90.10
2022-09-20T11:41:01.403Z,88.20
2022-09-20T11:42:05.245Z,88.50
2022-09-20T11:43:09.759Z,87.10
2022-09-20T11:44:16.398Z,88.30
2022-09-20T11:45:21.083Z,88.60
2022-09-20T11:46:30.093Z,89.30
2022-09-20T11:47:55.730Z,88.80
2022-09-20T11:49:23.950Z,89.50
2022-09-20T11:50:53.416Z,90.10
2022-09-20T11:52:36.047Z,85.50
2022-09-20T11:53:53.357Z,87.60
2022-09-20T11:55:29.049Z,88.30
2022-09-20T11:56:33.939Z,88.60
2022-09-20T11:57:36.074Z,88.20
2022-09-20T11:58:52.937Z,89.40
2022-09-20T11:59:59.066Z,88.60
2022-09-20T12:01:01.130Z,88.80
2022-09-20T12:02:15.661Z,88.90
2022-09-20T12:03:23.721Z,88.70
2022-09-20T12:04:36.689Z,86.30
2022-09-20T12:05:41.593Z,86.50
2022-09-20T12:06:43.858Z,86.50
2022-09-20T12:07:46.130Z,86.80
2022-09-20T12:08:51.251Z,84.40
2022-09-20T12:10:00.912Z,86.20
2022-09-20T12:11:07.138Z,82.50
2022-09-20T12:12:30.469Z,80.90
2022-09-20T12:13:36.887Z,82.40
2022-09-20T12:14:38.768Z,82.40
2022-09-20T12:15:42.153Z,81.80
2022-09-20T12:16:48.746Z,83.50
2022-09-20T12:18:15.660Z,84.50
2022-09-20T12:19:33.225Z,86.20
2022-09-20T12:20:34.983Z,86.40
2022-09-20T12:22:01.011Z,86.70
2022-09-20T12:23:42.701Z,86.80
2022-09-20T12:24:45.700Z,85.20
2022-09-20T12:26:13.446Z,85.70
2022-09-20T12:27:27.693Z,86.00
2022-09-20T12:28:41.446Z,85.40
2022-09-20T12:29:47.570Z,82.50
2022-09-20T12:31:18.580Z,85.10
2022-09-20T12:32:36.994Z,86.10
2022-09-20T12:33:59.520Z,86.50
2022-09-20T12:35:49.220Z,84.50
2022-09-20T12:36:52.637Z,85.80
2022-09-20T12:37:54.524Z,86.30
2022-09-20T12:39:11.174Z,85.50
2022-09-20T12:40:19.201Z,84.80
2022-09-20T12:41:28.620Z,85.10
2022-09-20T12:42:34.527Z,82.00
2022-09-20T12:43:47.983Z,78.90
2022-09-20T12:44:49.774Z,79.60
2022-09-20T12:45:57.105Z,82.70
2022-09-20T12:47:12.566Z,80.20
2022-09-20T12:48:20.072Z,80.10
2022-09-20T12:49:56.097Z,80.00
2022-09-20T12:51:45.939Z,81.20
2022-09-20T12:52:59.039Z,81.30
2022-09-20T12:54:06.762Z,82.40
2022-09-20T12:55:25.251Z,81.70
2022-09-20T12:56:28.346Z,81.00
2022-09-20T12:57:32.415Z,81.70
2022-09-20T12:59:05.474Z,81.40
2022-09-20T13:00:36.209Z,82.00
2022-09-20T13:01:39.384Z,82.00
2022-09-20T13:02:59.081Z,82.50
2022-09-20T13:04:38.233Z,83.20
2022-09-20T13:05:52.616Z,83.80
2022-09-20T13:07:51.949Z,84.30
2022-09-20T13:09:08.069Z,84.70
2022-09-20T13:10:24.913Z,85.30
2022-09-20T13:11:34.866Z,84.80
2022-09-20T13:12:38.352Z,84.80
2022-09-20T13:13:43.826Z,85.00
2022-09-20T13:14:45.783Z,84.90
2022-09-20T13:15:51.695Z,84.90
2022-09-20T13:17:06.851Z,84.00
2022-09-20T13:18:15.505Z,84.20
2022-09-20T13:19:21.722Z,84.50
2022-09-20T13:20:35.085Z,84.30
2022-09-20T13:21:43.449Z,83.80
2022-09-20T13:22:46.130Z,84.50
2022-09-20T13:23:54.183Z,85.10
2022-09-20T13:25:00.053Z,84.40
2022-09-20T13:26:03.972Z,84.40
2022-09-20T13:27:34.621Z,84.80
2022-09-20T13:28:54.283Z,85.20
2022-09-20T13:30:08.755Z,83.80
2022-09-20T13:31:26.326Z,85.10
2022-09-20T13:32:31.220Z,84.20
2022-09-20T13:33:33.171Z,84.80
2022-09-20T13:34:35.943Z,85.30
2022-09-20T13:35:38.055Z,86.00
2022-09-20T13:36:40.166Z,86.30
2022-09-20T13:37:56.349Z,86.80
2022-09-20T13:38:58.847Z,86.70
2022-09-20T13:40:02.501Z,87.20
2022-09-20T13:41:13.396Z,87.40
2022-09-20T13:42:19.911Z,87.20
2022-09-20T13:43:31.966Z,87.10
2022-09-20T13:44:35.109Z,86.90
2022-09-20T13:45:41.579Z,86.90
2022-09-20T13:46:45.283Z,86.90
2022-09-20T13:47:52.749Z,86.80
2022-09-20T13:49:12.784Z,86.80
2022-09-20T13:50:35.426Z,87.00
2022-09-20T13:51:37.420Z,86.60
2022-09-20T13:52:46.295Z,86.80
2022-09-20T13:53:48.230Z,86.20
2022-09-20T13:54:50.354Z,86.90
2022-09-20T13:55:54.784Z,87.00
2022-09-20T13:57:00.152Z,87.30
2022-09-20T13:58:21.596Z,87.30
2022-09-20T13:59:24.073Z,87.20
2022-09-20T14:00:26.235Z,87.00
2022-09-20T14:01:30.965Z,86.80
2022-09-20T14:02:34.466Z,86.90
2022-09-20T14:03:36.803Z,86.20
2022-09-20T14:04:39.693Z,85.90
2022-09-20T14:05:47.253Z,85.60
2022-09-20T14:06:50.258Z,85.00
2022-09-20T14:07:53.612Z,85.10
2022-09-20T14:08:58.464Z,84.90
2022-09-20T14:10:00.446Z,85.50
2022-09-20T14:11:06.487Z,85.70
2022-09-20T14:12:10.606Z,85.80
2022-09-20T14:13:16.432Z,86.20
2022-09-20T14:14:22.240Z,86.40
2022-09-20T14:15:25.386Z,85.50
2022-09-20T14:16:34.047Z,86.00
2022-09-20T14:17:36.297Z,86.50
2022-09-20T14:18:41.331Z,86.70
2022-09-20T14:19:46.404Z,85.90
2022-09-20T14:20:48.899Z,87.20
2022-09-20T14:21:51.054Z,85.10
2022-09-20T14:22:56.111Z,84.50
2022-09-20T14:24:25.629Z,85.10
2022-09-20T14:25:28.583Z,86.60
2022-09-20T14:26:33.630Z,86.60
2022-09-20T14:27:35.747Z,86.90
2022-09-20T14:28:37.847Z,86.90
2022-09-20T14:29:41.090Z,87.20
2022-09-20T14:30:43.286Z,87.40
2022-09-20T14:31:48.013Z,87.30
2022-09-20T14:32:55.468Z,86.50
2022-09-20T14:34:02.485Z,87.30
2022-09-20T14:35:07.276Z,87.60
2022-09-20T14:36:16.011Z,87.80
2022-09-20T14:37:28.778Z,87.20
2022-09-20T14:38:30.679Z,86.80
2022-09-20T14:39:33.330Z,87.20
2022-09-20T14:40:47.190Z,87.50
2022-09-20T14:41:50.858Z,85.00
2022-09-20T14:42:56.397Z,86.30
2022-09-20T14:44:00.775Z,85.90
2022-09-20T14:45:05.431Z,85.70
2022-09-20T14:46:18.214Z,85.80
2022-09-20T14:47:39.247Z,86.00
2022-09-20T14:48:42.034Z,85.90
2022-09-20T14:49:44.415Z,86.10
2022-09-20T14:51:07.349Z,85.90
2022-09-20T14:52:30.232Z,85.90
2022-09-20T14:53:32.651Z,86.90
2022-09-20T14:54:34.986Z,87.10
2022-09-20T14:55:38.493Z,86.90
2022-09-20T14:56:44.328Z,86.00
2022-09-20T14:57:47.714Z,86.30
2022-09-20T14:59:13.795Z,86.50
2022-09-20T15:00:19.379Z,85.40
2022-09-20T15:01:26.394Z,85.50
2022-09-20T15:02:28.339Z,86.30
2022-09-20T15:03:42.658Z,86.00
2022-09-20T15:05:00.959Z,86.10
2022-09-20T15:06:04.792Z,85.80
2022-09-20T15:07:11.161Z,85.90
2022-09-20T15:08:18.146Z,84.40
2022-09-20T15:09:21.962Z,85.10
2022-09-20T15:10:25.352Z,85.50
2022-09-20T15:11:29.351Z,85.80
2022-09-20T15:12:31.954Z,85.90
2022-09-20T15:13:33.776Z,85.60
2022-09-20T15:14:37.755Z,85.00
2022-09-20T15:15:40.270Z,85.20
2022-09-20T15:16:42.240Z,85.90
2022-09-20T15:17:45.603Z,84.50
2022-09-20T15:18:47.599Z,83.90
2022-09-20T15:19:50.376Z,85.00
2022-09-20T15:20:53.533Z,85.00
2022-09-20T15:21:55.384Z,85.20
2022-09-20T15:22:58.351Z,85.40
2022-09-20T15:24:00.361Z,86.10
2022-09-20T15:25:02.301Z,86.40
2022-09-20T15:26:04.315Z,86.00
2022-09-20T15:27:06.612Z,86.30
2022-09-20T15:28:17.247Z,86.40
2022-09-20T15:29:19.242Z,85.60
2022-09-20T15:30:21.145Z,86.70
2022-09-20T15:31:23.126Z,87.50
2022-09-20T15:32:25.030Z,87.70
2022-09-20T15:33:31.080Z,87.40
2022-09-20T15:34:33.017Z,86.90
2022-09-20T15:35:35.767Z,87.00
2022-09-20T15:36:38.430Z,86.60
2022-09-20T15:37:40.875Z,85.90
2022-09-20T15:38:42.851Z,86.60
2022-09-20T15:39:44.868Z,86.00
2022-09-20T15:40:49.506Z,86.00
2022-09-20T15:41:54.439Z,86.20
2022-09-20T15:42:58.449Z,86.80
2022-09-20T15:44:03.084Z,86.70
2022-09-20T15:45:13.791Z,87.10
2022-09-20T15:46:21.529Z,86.80
2022-09-20T15:47:23.971Z,87.70
2022-09-20T15:48:27.516Z,87.20
2022-09-20T15:49:31.093Z,87.10